sensor_id;sensor_type;location;lat;lon;timestamp;pressure;altitude;pressure_sealevel;temperature;humidity
11339;BME280;5724;42.684;23.252;2023-04-20T00:01:41;93999.31;;;8.80;75.92
11339;BME280;5724;42.684;23.252;2023-04-20T00:04:07;94008.50;;;8.91;76.20
11339;BME280;5724;42.684;23.252;2023-04-20T00:06:32;94000.34;;;8.75;76.85
11339;BME280;5724;42.684;23.252;2023-04-20T00:08:59;93996.06;;;8.74;76.64
11339;BME280;5724;42.684;23.252;2023-04-20T00:11:26;93991.50;;;8.78;76.75
11339;BME280;5724;42.684;23.252;2023-04-20T00:13:52;93997.19;;;8.73;76.55
11339;BME280;5724;42.684;23.252;2023-04-20T00:16:18;94000.00;;;8.77;77.08
11339;BME280;5724;42.684;23.252;2023-04-20T00:18:47;93992.28;;;8.79;76.90
11339;BME280;5724;42.684;23.252;2023-04-20T00:21:12;93986.38;;;8.77;77.52
11339;BME280;5724;42.684;23.252;2023-04-20T00:23:38;93984.97;;;8.83;77.23
11339;BME280;5724;42.684;23.252;2023-04-20T00:26:03;93991.34;;;8.91;76.75
11339;BME280;5724;42.684;23.252;2023-04-20T00:28:30;93985.38;;;8.85;77.16
11339;BME280;5724;42.684;23.252;2023-04-20T00:30:55;93989.19;;;8.80;77.11
11339;BME280;5724;42.684;23.252;2023-04-20T00:33:20;93989.25;;;8.84;76.89
11339;BME280;5724;42.684;23.252;2023-04-20T00:35:46;93964.44;;;8.70;76.98
11339;BME280;5724;42.684;23.252;2023-04-20T00:38:11;93984.81;;;8.76;77.48
11339;BME280;5724;42.684;23.252;2023-04-20T00:40:37;93971.25;;;8.60;77.81
11339;BME280;5724;42.684;23.252;2023-04-20T00:43:12;93996.00;;;8.71;77.33
11339;BME280;5724;42.684;23.252;2023-04-20T00:45:38;93988.00;;;8.62;78.26
11339;BME280;5724;42.684;23.252;2023-04-20T00:48:04;93986.19;;;8.50;79.56
11339;BME280;5724;42.684;23.252;2023-04-20T00:50:30;93996.19;;;8.46;80.08
11339;BME280;5724;42.684;23.252;2023-04-20T00:52:55;93997.69;;;8.44;80.48
11339;BME280;5724;42.684;23.252;2023-04-20T00:55:21;93993.56;;;8.34;81.23
11339;BME280;5724;42.684;23.252;2023-04-20T00:57:47;93982.34;;;8.36;81.55
11339;BME280;5724;42.684;23.252;2023-04-20T01:00:13;93992.22;;;8.28;81.37
11339;BME280;5724;42.684;23.252;2023-04-20T01:02:39;93922.38;;;7.69;82.01
11339;BME280;5724;42.684;23.252;2023-04-20T01:05:05;93983.03;;;8.01;82.56
11339;BME280;5724;42.684;23.252;2023-04-20T01:07:31;93979.00;;;7.95;83.48
11339;BME280;5724;42.684;23.252;2023-04-20T01:09:56;93931.97;;;7.63;83.64
11339;BME280;5724;42.684;23.252;2023-04-20T01:12:22;93983.88;;;7.89;83.84
11339;BME280;5724;42.684;23.252;2023-04-20T01:14:47;93986.09;;;7.84;84.66
11339;BME280;5724;42.684;23.252;2023-04-20T01:17:13;93960.47;;;7.69;84.81
11339;BME280;5724;42.684;23.252;2023-04-20T01:19:40;93975.81;;;7.77;85.32
11339;BME280;5724;42.684;23.252;2023-04-20T01:22:06;93976.34;;;7.67;86.02
11339;BME280;5724;42.684;23.252;2023-04-20T01:24:32;93987.91;;;7.64;86.23
11339;BME280;5724;42.684;23.252;2023-04-20T01:26:58;93981.06;;;7.70;86.30
11339;BME280;5724;42.684;23.252;2023-04-20T01:29:24;93979.50;;;7.69;86.35
11339;BME280;5724;42.684;23.252;2023-04-20T01:31:49;93973.34;;;7.72;86.34
11339;BME280;5724;42.684;23.252;2023-04-20T01:34:15;93973.34;;;7.72;86.46
11339;BME280;5724;42.684;23.252;2023-04-20T01:36:42;93973.03;;;7.73;86.71
11339;BME280;5724;42.684;23.252;2023-04-20T01:39:08;93951.88;;;7.67;86.90
11339;BME280;5724;42.684;23.252;2023-04-20T01:41:34;93962.56;;;7.75;87.02
11339;BME280;5724;42.684;23.252;2023-04-20T01:44:00;93957.41;;;7.86;86.80
11339;BME280;5724;42.684;23.252;2023-04-20T01:46:25;93954.44;;;7.91;85.88
11339;BME280;5724;42.684;23.252;2023-04-20T01:48:51;93954.16;;;7.96;86.29
11339;BME280;5724;42.684;23.252;2023-04-20T01:51:16;93958.19;;;7.87;86.21
11339;BME280;5724;42.684;23.252;2023-04-20T01:53:42;93956.34;;;7.91;86.41
11339;BME280;5724;42.684;23.252;2023-04-20T01:56:07;93946.59;;;7.90;86.44
11339;BME280;5724;42.684;23.252;2023-04-20T01:58:32;93952.59;;;7.95;86.18
11339;BME280;5724;42.684;23.252;2023-04-20T02:01:00;93945.72;;;7.86;85.61
11339;BME280;5724;42.684;23.252;2023-04-20T02:03:26;93953.28;;;7.92;85.81
11339;BME280;5724;42.684;23.252;2023-04-20T02:05:52;93943.63;;;7.95;85.69
11339;BME280;5724;42.684;23.252;2023-04-20T02:08:17;93942.66;;;8.03;84.87
11339;BME280;5724;42.684;23.252;2023-04-20T02:10:43;93953.53;;;7.87;85.09
11339;BME280;5724;42.684;23.252;2023-04-20T02:13:08;93943.72;;;7.98;84.55
11339;BME280;5724;42.684;23.252;2023-04-20T02:15:34;93937.84;;;7.96;84.16
11339;BME280;5724;42.684;23.252;2023-04-20T02:17:59;93953.56;;;8.03;83.73
11339;BME280;5724;42.684;23.252;2023-04-20T02:20:25;93947.13;;;7.95;83.24
11339;BME280;5724;42.684;23.252;2023-04-20T02:22:51;93956.94;;;8.00;83.24
11339;BME280;5724;42.684;23.252;2023-04-20T02:25:17;93951.72;;;7.91;83.18
11339;BME280;5724;42.684;23.252;2023-04-20T02:27:42;93949.50;;;7.97;83.06
11339;BME280;5724;42.684;23.252;2023-04-20T02:30:08;93961.97;;;7.98;82.93
11339;BME280;5724;42.684;23.252;2023-04-20T02:32:35;93942.22;;;8.01;82.71
11339;BME280;5724;42.684;23.252;2023-04-20T02:35:03;93942.22;;;8.01;82.83
11339;BME280;5724;42.684;23.252;2023-04-20T02:37:29;93951.88;;;7.98;83.08
11339;BME280;5724;42.684;23.252;2023-04-20T02:39:55;93954.59;;;7.98;83.53
11339;BME280;5724;42.684;23.252;2023-04-20T02:42:20;93955.38;;;7.99;83.97
11339;BME280;5724;42.684;23.252;2023-04-20T02:44:46;93955.47;;;8.02;83.36
11339;BME280;5724;42.684;23.252;2023-04-20T02:47:11;93958.44;;;7.97;83.67
11339;BME280;5724;42.684;23.252;2023-04-20T02:49:37;93961.25;;;7.85;84.33
11339;BME280;5724;42.684;23.252;2023-04-20T02:52:03;93954.25;;;7.84;83.27
11339;BME280;5724;42.684;23.252;2023-04-20T02:54:29;93962.84;;;7.86;83.37
11339;BME280;5724;42.684;23.252;2023-04-20T02:56:54;93961.25;;;7.85;83.75
11339;BME280;5724;42.684;23.252;2023-04-20T02:59:20;93946.44;;;7.83;83.40
11339;BME280;5724;42.684;23.252;2023-04-20T03:01:45;93960.75;;;7.95;83.13
11339;BME280;5724;42.684;23.252;2023-04-20T03:04:11;93957.91;;;8.08;82.57
11339;BME280;5724;42.684;23.252;2023-04-20T03:06:36;93965.47;;;7.98;82.75
11339;BME280;5724;42.684;23.252;2023-04-20T03:09:04;93954.34;;;8.03;82.72
11339;BME280;5724;42.684;23.252;2023-04-20T03:11:30;93957.91;;;8.08;82.72
11339;BME280;5724;42.684;23.252;2023-04-20T03:13:55;93951.63;;;8.03;82.97
11339;BME280;5724;42.684;23.252;2023-04-20T03:16:21;93952.31;;;8.00;83.11
11339;BME280;5724;42.684;23.252;2023-04-20T03:18:46;93960.47;;;8.00;83.13
11339;BME280;5724;42.684;23.252;2023-04-20T03:21:12;93957.50;;;8.06;83.53
11339;BME280;5724;42.684;23.252;2023-04-20T03:23:38;93957.25;;;8.11;83.51
11339;BME280;5724;42.684;23.252;2023-04-20T03:26:04;93949.69;;;8.04;83.63
11339;BME280;5724;42.684;23.252;2023-04-20T03:28:29;93955.63;;;8.10;83.30
11339;BME280;5724;42.684;23.252;2023-04-20T03:30:55;93961.00;;;8.06;83.44
11339;BME280;5724;42.684;23.252;2023-04-20T03:33:21;93956.41;;;8.10;82.84
11339;BME280;5724;42.684;23.252;2023-04-20T03:35:46;93965.13;;;8.16;82.81
11339;BME280;5724;42.684;23.252;2023-04-20T03:38:11;93956.69;;;8.21;82.99
11339;BME280;5724;42.684;23.252;2023-04-20T03:40:37;93954.31;;;8.19;82.85
11339;BME280;5724;42.684;23.252;2023-04-20T03:43:02;93954.50;;;8.11;83.72
11339;BME280;5724;42.684;23.252;2023-04-20T03:45:28;93956.53;;;8.14;83.40
11339;BME280;5724;42.684;23.252;2023-04-20T03:47:53;93948.06;;;8.19;83.41
11339;BME280;5724;42.684;23.252;2023-04-20T03:50:19;93963.00;;;8.25;83.50
11339;BME280;5724;42.684;23.252;2023-04-20T03:52:44;93961.44;;;8.24;82.27
11339;BME280;5724;42.684;23.252;2023-04-20T03:55:10;93951.16;;;8.17;82.15
11339;BME280;5724;42.684;23.252;2023-04-20T03:57:37;93965.00;;;8.28;81.02
11339;BME280;5724;42.684;23.252;2023-04-20T04:00:03;93959.13;;;8.26;81.33
11339;BME280;5724;42.684;23.252;2023-04-20T04:02:30;93961.50;;;8.27;80.38
11339;BME280;5724;42.684;23.252;2023-04-20T04:04:55;93960.28;;;8.25;80.40
11339;BME280;5724;42.684;23.252;2023-04-20T04:07:21;93961.44;;;8.24;80.49
11339;BME280;5724;42.684;23.252;2023-04-20T04:09:46;93956.84;;;8.28;80.71
11339;BME280;5724;42.684;23.252;2023-04-20T04:12:12;93963.19;;;8.32;79.92
11339;BME280;5724;42.684;23.252;2023-04-20T04:14:37;93962.91;;;8.37;79.95
11339;BME280;5724;42.684;23.252;2023-04-20T04:17:03;93966.31;;;8.34;80.28
11339;BME280;5724;42.684;23.252;2023-04-20T04:19:28;93967.22;;;8.38;80.64
11339;BME280;5724;42.684;23.252;2023-04-20T04:21:54;93969.25;;;8.41;80.35
11339;BME280;5724;42.684;23.252;2023-04-20T04:24:20;93973.81;;;8.37;80.65
11339;BME280;5724;42.684;23.252;2023-04-20T04:26:45;93964.16;;;8.24;80.11
11339;BME280;5724;42.684;23.252;2023-04-20T04:29:11;93967.03;;;8.31;80.29
11339;BME280;5724;42.684;23.252;2023-04-20T04:31:37;93970.56;;;8.31;80.84
11339;BME280;5724;42.684;23.252;2023-04-20T04:34:02;93969.50;;;8.36;80.71
11339;BME280;5724;42.684;23.252;2023-04-20T04:36:28;93961.72;;;8.35;80.68
11339;BME280;5724;42.684;23.252;2023-04-20T04:38:54;93966.44;;;8.38;80.55
11339;BME280;5724;42.684;23.252;2023-04-20T04:41:19;93982.47;;;8.27;80.92
11339;BME280;5724;42.684;23.252;2023-04-20T04:43:45;93972.13;;;8.32;80.85
11339;BME280;5724;42.684;23.252;2023-04-20T04:46:12;93980.41;;;8.36;80.66
11339;BME280;5724;42.684;23.252;2023-04-20T04:48:39;93982.41;;;8.39;80.65
11339;BME280;5724;42.684;23.252;2023-04-20T04:51:06;93988.31;;;8.41;80.77
11339;BME280;5724;42.684;23.252;2023-04-20T04:53:32;93980.16;;;8.41;80.48
11339;BME280;5724;42.684;23.252;2023-04-20T04:55:57;93994.44;;;8.38;80.94
11339;BME280;5724;42.684;23.252;2023-04-20T04:58:23;93990.69;;;8.43;80.68
11339;BME280;5724;42.684;23.252;2023-04-20T05:00:49;93989.16;;;8.45;80.86
11339;BME280;5724;42.684;23.252;2023-04-20T05:03:14;93991.53;;;8.47;80.13
11339;BME280;5724;42.684;23.252;2023-04-20T05:05:40;93995.41;;;8.46;80.61
11339;BME280;5724;42.684;23.252;2023-04-20T05:08:06;94002.28;;;8.40;80.37
11339;BME280;5724;42.684;23.252;2023-04-20T05:10:31;93994.63;;;8.45;80.35
11339;BME280;5724;42.684;23.252;2023-04-20T05:12:56;94009.38;;;8.44;80.90
11339;BME280;5724;42.684;23.252;2023-04-20T05:15:25;93998.56;;;8.48;81.07
11339;BME280;5724;42.684;23.252;2023-04-20T05:17:51;93996.19;;;8.46;80.70
11339;BME280;5724;42.684;23.252;2023-04-20T05:20:17;93997.59;;;8.56;80.31
11339;BME280;5724;42.684;23.252;2023-04-20T05:22:43;93996.38;;;8.53;80.53
11339;BME280;5724;42.684;23.252;2023-04-20T05:25:09;94001.75;;;8.50;81.04
11339;BME280;5724;42.684;23.252;2023-04-20T05:27:35;93980.66;;;8.47;81.34
11339;BME280;5724;42.684;23.252;2023-04-20T05:30:00;93999.25;;;8.60;81.23
11339;BME280;5724;42.684;23.252;2023-04-20T05:32:26;94003.91;;;8.60;81.07
11339;BME280;5724;42.684;23.252;2023-04-20T05:34:51;94006.47;;;8.53;81.21
11339;BME280;5724;42.684;23.252;2023-04-20T05:37:17;94000.22;;;8.52;82.04
11339;BME280;5724;42.684;23.252;2023-04-20T05:39:43;94004.91;;;8.52;82.29
11339;BME280;5724;42.684;23.252;2023-04-20T05:42:09;94023.59;;;8.53;82.44
11339;BME280;5724;42.684;23.252;2023-04-20T05:44:34;94018.41;;;8.48;82.52
11339;BME280;5724;42.684;23.252;2023-04-20T05:47:01;94018.41;;;8.48;82.74
11339;BME280;5724;42.684;23.252;2023-04-20T05:49:31;94015.69;;;8.48;83.41
11339;BME280;5724;42.684;23.252;2023-04-20T05:51:56;94012.78;;;8.57;83.12
11339;BME280;5724;42.684;23.252;2023-04-20T05:54:22;94010.94;;;8.61;83.39
11339;BME280;5724;42.684;23.252;2023-04-20T05:56:48;94011.97;;;8.56;83.33
11339;BME280;5724;42.684;23.252;2023-04-20T05:59:14;94006.53;;;8.56;84.20
11339;BME280;5724;42.684;23.252;2023-04-20T06:01:40;94011.97;;;8.56;84.71
11339;BME280;5724;42.684;23.252;2023-04-20T06:04:06;94005.84;;;8.59;84.92
11339;BME280;5724;42.684;23.252;2023-04-20T06:06:31;94006.44;;;8.69;85.02
11339;BME280;5724;42.684;23.252;2023-04-20T06:08:57;94003.78;;;8.72;84.93
11339;BME280;5724;42.684;23.252;2023-04-20T06:11:22;94013.72;;;8.65;85.84
11339;BME280;5724;42.684;23.252;2023-04-20T06:13:48;94008.47;;;8.72;85.51
11339;BME280;5724;42.684;23.252;2023-04-20T06:16:13;93998.81;;;8.58;85.80
11339;BME280;5724;42.684;23.252;2023-04-20T06:18:39;94006.88;;;8.71;85.84
11339;BME280;5724;42.684;23.252;2023-04-20T06:21:04;94013.19;;;8.75;86.70
11339;BME280;5724;42.684;23.252;2023-04-20T06:23:30;94008.16;;;8.77;85.67
11339;BME280;5724;42.684;23.252;2023-04-20T06:25:55;94006.94;;;8.74;85.30
11339;BME280;5724;42.684;23.252;2023-04-20T06:28:21;94011.78;;;8.81;85.30
11339;BME280;5724;42.684;23.252;2023-04-20T06:30:46;94017.09;;;8.93;85.05
11339;BME280;5724;42.684;23.252;2023-04-20T06:33:12;94013.41;;;8.85;84.48
11339;BME280;5724;42.684;23.252;2023-04-20T06:35:41;94014.22;;;8.86;84.67
11339;BME280;5724;42.684;23.252;2023-04-20T06:38:07;94011.84;;;8.84;84.16
11339;BME280;5724;42.684;23.252;2023-04-20T06:40:33;94013.41;;;8.85;84.58
11339;BME280;5724;42.684;23.252;2023-04-20T06:42:58;94019.66;;;8.86;84.58
11339;BME280;5724;42.684;23.252;2023-04-20T06:45:23;94022.75;;;8.84;84.86
11339;BME280;5724;42.684;23.252;2023-04-20T06:47:49;94025.81;;;8.83;85.91
11339;BME280;5724;42.684;23.252;2023-04-20T06:50:14;94028.72;;;8.90;85.94
11339;BME280;5724;42.684;23.252;2023-04-20T06:52:40;94031.88;;;8.92;87.64
11339;BME280;5724;42.684;23.252;2023-04-20T06:55:06;94023.47;;;8.81;87.99
11339;BME280;5724;42.684;23.252;2023-04-20T06:57:32;94030.56;;;8.86;87.89
11339;BME280;5724;42.684;23.252;2023-04-20T06:59:57;94036.00;;;8.86;88.34
11339;BME280;5724;42.684;23.252;2023-04-20T07:02:25;94036.09;;;8.89;89.71
11339;BME280;5724;42.684;23.252;2023-04-20T07:04:51;94040.66;;;8.85;89.14
11339;BME280;5724;42.684;23.252;2023-04-20T07:07:16;94024.19;;;8.78;89.88
11339;BME280;5724;42.684;23.252;2023-04-20T07:09:42;94039.63;;;8.90;90.24
11339;BME280;5724;42.684;23.252;2023-04-20T07:12:08;94031.28;;;8.83;91.86
11339;BME280;5724;42.684;23.252;2023-04-20T07:14:33;94030.72;;;8.93;92.46
11339;BME280;5724;42.684;23.252;2023-04-20T07:16:59;94046.72;;;8.95;90.95
11339;BME280;5724;42.684;23.252;2023-04-20T07:19:24;94044.88;;;8.99;89.19
11339;BME280;5724;42.684;23.252;2023-04-20T07:21:50;94040.78;;;9.08;88.49
11339;BME280;5724;42.684;23.252;2023-04-20T07:24:15;94045.38;;;9.24;88.62
11339;BME280;5724;42.684;23.252;2023-04-20T07:26:40;94046.06;;;9.17;86.99
11339;BME280;5724;42.684;23.252;2023-04-20T07:29:06;94045.97;;;9.33;86.19
11339;BME280;5724;42.684;23.252;2023-04-20T07:31:31;94044.91;;;9.37;84.86
11339;BME280;5724;42.684;23.252;2023-04-20T07:33:57;94047.84;;;9.48;86.89
11339;BME280;5724;42.684;23.252;2023-04-20T07:36:22;94036.78;;;9.60;84.64
11339;BME280;5724;42.684;23.252;2023-04-20T07:38:48;94038.66;;;9.75;82.27
11339;BME280;5724;42.684;23.252;2023-04-20T07:41:14;94034.63;;;9.69;82.60
11339;BME280;5724;42.684;23.252;2023-04-20T07:43:40;94037.50;;;9.77;81.43
11339;BME280;5724;42.684;23.252;2023-04-20T07:46:06;94045.09;;;9.87;80.62
11339;BME280;5724;42.684;23.252;2023-04-20T07:48:34;94025.63;;;9.88;81.92
11339;BME280;5724;42.684;23.252;2023-04-20T07:50:59;94036.13;;;10.28;81.13
11339;BME280;5724;42.684;23.252;2023-04-20T07:53:26;94039.22;;;10.50;80.64
11339;BME280;5724;42.684;23.252;2023-04-20T07:55:52;94039.56;;;10.71;79.22
11339;BME280;5724;42.684;23.252;2023-04-20T07:58:17;94041.25;;;10.79;78.09
11339;BME280;5724;42.684;23.252;2023-04-20T08:00:44;94037.34;;;10.80;77.65
11339;BME280;5724;42.684;23.252;2023-04-20T08:03:10;94037.84;;;11.12;77.81
11339;BME280;5724;42.684;23.252;2023-04-20T08:05:37;94037.03;;;11.12;75.89
11339;BME280;5724;42.684;23.252;2023-04-20T08:08:03;94043.88;;;10.99;74.37
11339;BME280;5724;42.684;23.252;2023-04-20T08:10:28;94048.50;;;10.95;74.96
11339;BME280;5724;42.684;23.252;2023-04-20T08:12:53;94053.13;;;10.64;75.40
11339;BME280;5724;42.684;23.252;2023-04-20T08:15:19;94053.06;;;10.38;76.21
11339;BME280;5724;42.684;23.252;2023-04-20T08:17:44;94045.00;;;10.45;77.08
11339;BME280;5724;42.684;23.252;2023-04-20T08:20:10;94050.50;;;10.25;77.65
11339;BME280;5724;42.684;23.252;2023-04-20T08:22:35;94057.38;;;10.39;77.02
11339;BME280;5724;42.684;23.252;2023-04-20T08:25:01;94054.16;;;10.33;76.23
11339;BME280;5724;42.684;23.252;2023-04-20T08:27:26;94047.91;;;10.13;77.23
11339;BME280;5724;42.684;23.252;2023-04-20T08:29:54;94056.09;;;10.32;77.39
11339;BME280;5724;42.684;23.252;2023-04-20T08:32:19;94050.63;;;10.13;77.45
11339;BME280;5724;42.684;23.252;2023-04-20T08:34:48;94058.53;;;10.18;78.43
11339;BME280;5724;42.684;23.252;2023-04-20T08:37:14;94057.38;;;10.19;77.61
11339;BME280;5724;42.684;23.252;2023-04-20T08:39:39;94058.72;;;10.06;77.79
11339;BME280;5724;42.684;23.252;2023-04-20T08:42:04;94053.38;;;10.13;78.04
11339;BME280;5724;42.684;23.252;2023-04-20T08:44:30;94052.47;;;10.06;78.19
11339;BME280;5724;42.684;23.252;2023-04-20T08:46:56;94056.28;;;10.01;78.52
11339;BME280;5724;42.684;23.252;2023-04-20T08:49:21;94053.25;;;10.06;77.25
11339;BME280;5724;42.684;23.252;2023-04-20T08:51:48;94057.00;;;9.98;78.36
11339;BME280;5724;42.684;23.252;2023-04-20T08:54:13;94054.97;;;10.14;77.78
11339;BME280;5724;42.684;23.252;2023-04-20T08:56:42;94052.94;;;10.11;77.37
11339;BME280;5724;42.684;23.252;2023-04-20T08:59:08;94057.56;;;10.07;77.76
11339;BME280;5724;42.684;23.252;2023-04-20T09:01:39;94054.25;;;10.17;77.83
11339;BME280;5724;42.684;23.252;2023-04-20T09:04:25;94061.53;;;10.32;77.72
11339;BME280;5724;42.684;23.252;2023-04-20T09:06:54;94056.75;;;10.26;77.02
11339;BME280;5724;42.684;23.252;2023-04-20T09:09:23;94045.75;;;10.22;77.62
11339;BME280;5724;42.684;23.252;2023-04-20T09:12:05;94057.78;;;10.41;77.46
11339;BME280;5724;42.684;23.252;2023-04-20T09:14:43;94063.38;;;10.48;77.20
11339;BME280;5724;42.684;23.252;2023-04-20T09:17:09;94049.31;;;10.46;76.38
11339;BME280;5724;42.684;23.252;2023-04-20T09:19:38;94052.63;;;10.58;76.59
11339;BME280;5724;42.684;23.252;2023-04-20T09:22:04;94055.91;;;10.68;76.16
11339;BME280;5724;42.684;23.252;2023-04-20T09:24:34;94049.69;;;10.71;76.14
11339;BME280;5724;42.684;23.252;2023-04-20T09:27:01;94056.81;;;10.75;75.36
11339;BME280;5724;42.684;23.252;2023-04-20T09:29:27;94050.59;;;10.78;75.12
11339;BME280;5724;42.684;23.252;2023-04-20T09:31:54;94046.81;;;10.86;74.30
11339;BME280;5724;42.684;23.252;2023-04-20T09:34:20;94042.63;;;10.93;74.52
11339;BME280;5724;42.684;23.252;2023-04-20T09:36:48;94038.63;;;11.13;74.22
11339;BME280;5724;42.684;23.252;2023-04-20T09:39:19;94045.69;;;11.17;72.16
11339;BME280;5724;42.684;23.252;2023-04-20T09:41:46;94049.56;;;11.13;72.55
11339;BME280;5724;42.684;23.252;2023-04-20T09:44:13;94043.44;;;11.23;72.90
11339;BME280;5724;42.684;23.252;2023-04-20T09:46:40;94037.97;;;11.23;71.96
11339;BME280;5724;42.684;23.252;2023-04-20T09:49:07;94042.03;;;11.06;72.64
11339;BME280;5724;42.684;23.252;2023-04-20T09:51:38;94041.84;;;10.92;72.04
11339;BME280;5724;42.684;23.252;2023-04-20T09:54:06;94054.47;;;11.00;72.50
11339;BME280;5724;42.684;23.252;2023-04-20T09:56:33;94039.78;;;10.85;73.07
11339;BME280;5724;42.684;23.252;2023-04-20T09:58:59;94041.06;;;10.92;72.60
11339;BME280;5724;42.684;23.252;2023-04-20T10:01:28;94028.09;;;10.88;73.12
11339;BME280;5724;42.684;23.252;2023-04-20T10:03:54;94026.81;;;11.09;73.24
11339;BME280;5724;42.684;23.252;2023-04-20T10:06:20;94028.13;;;11.18;72.71
11339;BME280;5724;42.684;23.252;2023-04-20T10:08:46;94034.72;;;11.44;71.94
11339;BME280;5724;42.684;23.252;2023-04-20T10:13:52;94021.72;;;11.67;70.90
11339;BME280;5724;42.684;23.252;2023-04-20T10:16:17;94023.34;;;11.72;70.03
11339;BME280;5724;42.684;23.252;2023-04-20T10:19:00;94015.66;;;11.81;69.74
11339;BME280;5724;42.684;23.252;2023-04-20T10:21:28;94025.13;;;11.87;69.40
11339;BME280;5724;42.684;23.252;2023-04-20T10:23:53;94021.53;;;11.83;68.65
11339;BME280;5724;42.684;23.252;2023-04-20T10:26:21;94023.28;;;11.98;68.09
11339;BME280;5724;42.684;23.252;2023-04-20T10:28:48;94020.53;;;11.98;67.93
11339;BME280;5724;42.684;23.252;2023-04-20T10:31:14;94026.13;;;11.75;67.49
11339;BME280;5724;42.684;23.252;2023-04-20T10:33:48;94015.94;;;11.72;68.10
11339;BME280;5724;42.684;23.252;2023-04-20T10:36:28;94005.97;;;11.87;68.79
11339;BME280;5724;42.684;23.252;2023-04-20T10:38:55;94009.69;;;12.09;68.09
11339;BME280;5724;42.684;23.252;2023-04-20T10:41:21;93999.88;;;12.04;68.33
11339;BME280;5724;42.684;23.252;2023-04-20T10:43:46;94011.50;;;12.35;68.68
11339;BME280;5724;42.684;23.252;2023-04-20T10:46:16;94016.94;;;12.31;66.96
11339;BME280;5724;42.684;23.252;2023-04-20T10:48:55;94010.72;;;11.94;66.22
11339;BME280;5724;42.684;23.252;2023-04-20T10:51:22;94019.81;;;12.05;67.68
11339;BME280;5724;42.684;23.252;2023-04-20T10:56:23;94012.72;;;12.38;68.61
11339;BME280;5724;42.684;23.252;2023-04-20T10:58:50;94025.47;;;12.67;67.23
11339;BME280;5724;42.684;23.252;2023-04-20T11:01:16;94011.47;;;12.83;67.31
11339;BME280;5724;42.684;23.252;2023-04-20T11:03:41;94007.84;;;13.20;65.76
11339;BME280;5724;42.684;23.252;2023-04-20T11:06:06;94008.59;;;13.16;65.13
11339;BME280;5724;42.684;23.252;2023-04-20T11:08:40;94003.28;;;13.45;64.94
11339;BME280;5724;42.684;23.252;2023-04-20T11:11:17;93995.44;;;13.47;63.91
11339;BME280;5724;42.684;23.252;2023-04-20T11:13:43;94001.00;;;13.65;63.99
11339;BME280;5724;42.684;23.252;2023-04-20T11:16:12;93990.78;;;13.58;63.21
11339;BME280;5724;42.684;23.252;2023-04-20T11:19:07;93986.56;;;13.89;62.95
11339;BME280;5724;42.684;23.252;2023-04-20T11:21:39;93995.97;;;13.85;60.86
11339;BME280;5724;42.684;23.252;2023-04-20T11:24:15;93992.56;;;14.30;61.20
11339;BME280;5724;42.684;23.252;2023-04-20T11:26:42;93981.16;;;14.28;60.20
11339;BME280;5724;42.684;23.252;2023-04-20T11:29:08;93987.06;;;14.30;58.67
11339;BME280;5724;42.684;23.252;2023-04-20T11:31:33;93997.94;;;13.84;58.24
11339;BME280;5724;42.684;23.252;2023-04-20T11:33:59;93981.88;;;13.97;59.55
11339;BME280;5724;42.684;23.252;2023-04-20T11:36:26;93972.50;;;14.23;60.00
11339;BME280;5724;42.684;23.252;2023-04-20T11:38:53;93977.63;;;14.31;59.00
11339;BME280;5724;42.684;23.252;2023-04-20T11:41:20;93972.94;;;14.85;57.87
11339;BME280;5724;42.684;23.252;2023-04-20T11:43:46;93959.94;;;15.04;56.65
11339;BME280;5724;42.684;23.252;2023-04-20T11:46:17;93972.13;;;15.10;56.51
11339;BME280;5724;42.684;23.252;2023-04-20T11:48:44;93972.94;;;14.71;56.07
11339;BME280;5724;42.684;23.252;2023-04-20T11:51:09;93967.44;;;14.85;57.21
11339;BME280;5724;42.684;23.252;2023-04-20T11:53:35;93972.16;;;14.88;56.61
11339;BME280;5724;42.684;23.252;2023-04-20T11:56:02;93969.00;;;14.44;57.67
11339;BME280;5724;42.684;23.252;2023-04-20T11:58:27;93960.75;;;14.19;58.79
11339;BME280;5724;42.684;23.252;2023-04-20T12:00:53;93973.66;;;14.04;59.65
11339;BME280;5724;42.684;23.252;2023-04-20T12:03:18;93965.00;;;13.91;58.96
11339;BME280;5724;42.684;23.252;2023-04-20T12:05:43;93986.00;;;13.41;59.66
11339;BME280;5724;42.684;23.252;2023-04-20T12:08:09;93952.06;;;12.98;61.77
11339;BME280;5724;42.684;23.252;2023-04-20T12:10:34;93970.66;;;12.67;65.06
11339;BME280;5724;42.684;23.252;2023-04-20T12:13:00;93963.22;;;12.16;69.37
11339;BME280;5724;42.684;23.252;2023-04-20T12:15:26;93970.72;;;11.86;72.58
11339;BME280;5724;42.684;23.252;2023-04-20T12:17:52;93965.66;;;11.51;73.12
11339;BME280;5724;42.684;23.252;2023-04-20T12:20:18;93965.19;;;11.45;71.71
11339;BME280;5724;42.684;23.252;2023-04-20T12:22:43;93969.38;;;11.35;71.97
11339;BME280;5724;42.684;23.252;2023-04-20T12:25:09;93953.81;;;11.43;74.58
11339;BME280;5724;42.684;23.252;2023-04-20T12:27:34;93967.66;;;11.57;75.36
11339;BME280;5724;42.684;23.252;2023-04-20T12:30:00;93968.16;;;11.66;75.01
11339;BME280;5724;42.684;23.252;2023-04-20T12:32:25;93962.75;;;11.73;75.93
11339;BME280;5724;42.684;23.252;2023-04-20T12:34:51;93965.63;;;11.84;75.52
11339;BME280;5724;42.684;23.252;2023-04-20T12:37:16;93961.22;;;12.13;73.36
11339;BME280;5724;42.684;23.252;2023-04-20T12:39:42;93957.84;;;12.27;72.14
11339;BME280;5724;42.684;23.252;2023-04-20T12:42:07;93949.38;;;12.46;71.35
11339;BME280;5724;42.684;23.252;2023-04-20T12:44:33;93940.72;;;12.44;70.28
11339;BME280;5724;42.684;23.252;2023-04-20T12:46:59;93949.41;;;12.53;69.60
11339;BME280;5724;42.684;23.252;2023-04-20T12:49:24;93939.03;;;12.80;69.27
11339;BME280;5724;42.684;23.252;2023-04-20T12:51:50;93944.97;;;12.93;69.56
11339;BME280;5724;42.684;23.252;2023-04-20T12:54:15;93947.06;;;13.17;66.26
11339;BME280;5724;42.684;23.252;2023-04-20T12:56:41;93940.03;;;13.20;64.68
11339;BME280;5724;42.684;23.252;2023-04-20T12:59:07;93936.03;;;13.10;64.46
11339;BME280;5724;42.684;23.252;2023-04-20T13:01:33;93931.47;;;13.25;64.85
11339;BME280;5724;42.684;23.252;2023-04-20T13:03:58;93940.50;;;13.36;63.79
11339;BME280;5724;42.684;23.252;2023-04-20T13:06:24;93937.81;;;13.51;64.36
11339;BME280;5724;42.684;23.252;2023-04-20T13:08:49;93939.03;;;13.64;61.95